Terminal Aerodrome Forecast
Issued by NWS

Home | Current Version | Previous Version | Graphics & Text | Print | Product List | Glossary On
Versions: 1 2 3 4 5 6 7 8 9 10 11 12 13 14 15 16 17 18 19
000
FTUS43 KGRB 280500
TAFATW
TAF
KATW 280536Z 2806/2906 VRB03KT P6SM BKN035
      TEMPO 2808/2812 4SM BR SCT040
     FM281300 12006KT P6SM SCT090 BKN250
     FM282100 12008KT P6SM OVC080
     FM290200 11004KT 5SM -SHRA OVC040=

USA.gov is the U.S. government's official web portal to all federal, state and local government web resources and services.